createdAt,value
2023-04-18T00:00:21.337Z,97854.41
2023-04-18T00:03:24.124Z,97852.00
2023-04-18T00:06:26.875Z,97843.91
2023-04-18T00:09:28.902Z,97850.72
2023-04-18T00:12:32.103Z,97847.59
2023-04-18T00:15:35.700Z,97850.38
2023-04-18T00:18:37.684Z,97851.88
2023-04-18T00:21:45.132Z,97842.75
2023-04-18T00:24:47.557Z,97852.34
2023-04-18T00:27:49.581Z,97852.81
2023-04-18T00:30:52.780Z,97851.19
2023-04-18T00:33:54.970Z,97850.16
2023-04-18T00:36:58.982Z,97850.72
2023-04-18T00:40:00.955Z,97844.13
2023-04-18T00:43:03.213Z,97845.28
2023-04-18T00:46:05.403Z,97851.88
2023-04-18T00:49:08.223Z,97842.84
2023-04-18T00:52:12.153Z,97847.94
2023-04-18T00:55:16.404Z,97840.44
2023-04-18T00:58:18.399Z,97850.16
2023-04-18T01:01:20.449Z,97854.19
2023-04-18T01:04:22.718Z,97845.97
2023-04-18T01:07:26.671Z,97822.16
2023-04-18T01:10:32.041Z,97849.31
2023-04-18T01:13:34.067Z,97848.19
2023-04-18T01:16:39.044Z,97851.16
2023-04-18T01:19:41.129Z,97851.84
2023-04-18T01:22:43.392Z,97851.84
2023-04-18T01:25:47.206Z,97845.50
2023-04-18T01:28:49.199Z,97849.78
2023-04-18T01:31:51.230Z,97847.00
2023-04-18T01:34:53.211Z,97850.47
2023-04-18T01:37:55.632Z,97846.41
2023-04-18T01:40:57.565Z,97845.03
2023-04-18T01:44:00.208Z,97818.75
2023-04-18T01:47:02.589Z,97848.94
2023-04-18T01:50:08.100Z,97852.09
2023-04-18T01:53:10.062Z,97823.97
2023-04-18T01:56:12.058Z,97842.63
2023-04-18T01:59:14.085Z,97847.44
2023-04-18T02:02:16.534Z,97844.56
2023-04-18T02:05:19.060Z,97851.28
2023-04-18T02:08:21.386Z,97831.94
2023-04-18T02:11:23.360Z,97844.19
2023-04-18T02:14:30.248Z,97844.66
2023-04-18T02:17:36.473Z,97849.16
2023-04-18T02:20:38.734Z,97847.75
2023-04-18T02:23:40.754Z,97847.00
2023-04-18T02:26:43.378Z,97846.16
2023-04-18T02:29:46.026Z,97840.16
2023-04-18T02:32:52.265Z,97844.06
2023-04-18T02:35:54.330Z,97852.50
2023-04-18T02:38:56.704Z,97848.56
2023-04-18T02:41:59.030Z,97856.78
2023-04-18T02:45:01.026Z,97855.84
2023-04-18T02:48:03.099Z,97858.28
2023-04-18T02:51:07.779Z,97859.91
2023-04-18T02:54:12.059Z,97843.50
2023-04-18T02:57:30.000Z,97858.19
2023-04-18T03:00:37.517Z,97863.59
2023-04-18T03:03:59.927Z,97857.72
2023-04-18T03:07:09.578Z,97853.44
2023-04-18T03:10:13.894Z,97855.50
2023-04-18T03:13:17.635Z,97855.28
2023-04-18T03:16:20.033Z,97859.78
2023-04-18T03:19:23.836Z,97850.09
2023-04-18T03:22:27.935Z,97851.34
2023-04-18T03:25:34.584Z,97846.41
2023-04-18T03:28:37.618Z,97849.50
2023-04-18T03:31:41.769Z,97845.81
2023-04-18T03:34:44.320Z,97857.25
2023-04-18T03:37:46.481Z,97852.97
2023-04-18T03:40:55.440Z,97860.81
2023-04-18T03:44:05.387Z,97853.88
2023-04-18T03:47:11.382Z,97861.97
2023-04-18T03:50:16.733Z,97860.72
2023-04-18T03:53:20.531Z,97852.97
2023-04-18T03:56:23.575Z,97862.91
2023-04-18T03:59:27.590Z,97860.94
2023-04-18T04:02:30.748Z,97863.25
2023-04-18T04:05:33.186Z,97865.91
2023-04-18T04:08:35.213Z,97872.28
2023-04-18T04:11:37.907Z,97869.00
2023-04-18T04:14:42.505Z,97876.97
2023-04-18T04:17:44.754Z,97878.03
2023-04-18T04:20:48.103Z,97879.88
2023-04-18T04:24:10.634Z,97878.03
2023-04-18T04:27:19.133Z,97880.56
2023-04-18T04:30:21.914Z,97855.88
2023-04-18T04:33:26.044Z,97887.13
2023-04-18T04:36:30.890Z,97878.84
2023-04-18T04:39:34.326Z,97893.97
2023-04-18T04:42:56.947Z,97889.91
2023-04-18T04:46:07.823Z,97886.22
2023-04-18T04:49:09.960Z,97886.44
2023-04-18T04:52:12.030Z,97894.66
2023-04-18T04:55:14.098Z,97895.00
2023-04-18T04:58:18.002Z,97896.63
2023-04-18T05:01:59.869Z,97888.06
2023-04-18T05:05:01.972Z,97899.28
2023-04-18T05:08:04.943Z,97896.88
2023-04-18T05:11:07.079Z,97903.19
2023-04-18T05:14:09.224Z,97899.53
2023-04-18T05:17:11.281Z,97903.94
2023-04-18T05:20:13.353Z,97913.63
2023-04-18T05:23:15.372Z,97909.50
2023-04-18T05:26:18.874Z,97904.38
2023-04-18T05:29:20.913Z,97908.50
2023-04-18T05:32:24.221Z,97914.63
2023-04-18T05:35:26.396Z,97825.94
2023-04-18T05:38:28.389Z,97878.41
2023-04-18T05:41:30.554Z,97912.94
2023-04-18T05:44:32.598Z,97910.63
2023-04-18T05:47:34.667Z,97911.09
2023-04-18T05:50:36.814Z,97915.13
2023-04-18T05:53:38.869Z,97905.78
2023-04-18T05:56:41.053Z,97894.28
2023-04-18T05:59:43.260Z,97889.63
2023-04-18T06:02:45.386Z,97915.47
2023-04-18T06:05:47.507Z,97908.06
2023-04-18T06:08:49.537Z,97912.25
2023-04-18T06:11:51.557Z,97903.81
2023-04-18T06:14:53.598Z,97916.16
2023-04-18T06:17:55.660Z,97916.28
2023-04-18T06:20:57.729Z,97912.25
2023-04-18T06:24:01.508Z,97915.72
2023-04-18T06:27:03.902Z,97924.03
2023-04-18T06:30:07.868Z,97925.88
2023-04-18T06:33:11.242Z,97932.63
2023-04-18T06:36:13.298Z,97921.31
2023-04-18T06:39:15.393Z,97925.59
2023-04-18T06:42:17.699Z,97931.72
2023-04-18T06:45:22.854Z,97932.19
2023-04-18T06:48:24.884Z,97935.66
2023-04-18T06:51:27.732Z,97916.19
2023-04-18T06:54:29.780Z,97820.84
2023-04-18T06:57:31.824Z,97928.63
2023-04-18T07:00:33.899Z,97939.25
2023-04-18T07:03:36.079Z,97949.88
2023-04-18T07:06:38.310Z,97907.38
2023-04-18T07:09:40.386Z,97918.72
2023-04-18T07:12:42.344Z,97956.69
2023-04-18T07:15:44.470Z,97947.59
2023-04-18T07:18:46.435Z,97937.88
2023-04-18T07:21:48.483Z,97948.28
2023-04-18T07:24:50.579Z,97948.53
2023-04-18T07:27:52.559Z,97955.47
2023-04-18T07:30:57.045Z,97953.63
2023-04-18T07:33:59.193Z,97959.97
2023-04-18T07:37:01.497Z,97899.53
2023-04-18T07:40:04.514Z,97937.66
2023-04-18T07:43:06.502Z,97955.16
2023-04-18T07:46:08.725Z,97938.56
2023-04-18T07:49:10.926Z,97962.41
2023-04-18T07:52:13.042Z,97961.28
2023-04-18T07:55:15.140Z,97967.28
2023-04-18T07:58:17.600Z,97964.41
2023-04-18T08:01:21.237Z,97973.03
2023-04-18T08:04:23.488Z,97969.38
2023-04-18T08:07:25.983Z,97971.78
2023-04-18T08:10:28.347Z,97877.41
2023-04-18T08:13:30.585Z,97977.09
2023-04-18T08:16:32.645Z,97974.69
2023-04-18T08:19:34.770Z,97975.50
2023-04-18T08:22:44.185Z,97976.44
2023-04-18T08:25:58.915Z,97976.91
2023-04-18T08:29:00.960Z,97980.72
2023-04-18T08:32:03.142Z,97973.16
2023-04-18T08:35:05.497Z,97981.50
2023-04-18T08:38:07.803Z,97981.66
2023-04-18T08:41:09.986Z,97958.34
2023-04-18T08:44:12.540Z,97994.00
2023-04-18T08:47:14.888Z,97994.81
2023-04-18T08:50:17.513Z,97997.22
2023-04-18T08:53:19.573Z,97996.53
2023-04-18T08:56:26.188Z,97996.69
2023-04-18T08:59:28.296Z,97993.56
2023-04-18T09:02:39.191Z,97992.41
2023-04-18T09:05:41.560Z,97995.91
2023-04-18T09:08:55.061Z,98011.06
2023-04-18T09:12:18.540Z,97994.63
2023-04-18T09:15:23.871Z,97993.75
2023-04-18T09:18:26.120Z,97958.13
2023-04-18T09:21:29.899Z,97970.06
2023-04-18T09:24:32.672Z,98003.91
2023-04-18T09:27:35.413Z,98004.16
2023-04-18T09:30:40.196Z,97998.47
2023-04-18T09:33:57.110Z,97996.53
2023-04-18T09:37:07.966Z,98008.69
2023-04-18T09:40:20.543Z,98003.75
2023-04-18T09:43:22.577Z,98000.75
2023-04-18T09:46:25.550Z,98000.13
2023-04-18T09:49:27.871Z,98002.47
2023-04-18T09:52:40.375Z,98006.41
2023-04-18T09:55:43.156Z,98010.91
2023-04-18T09:58:47.637Z,98005.09
2023-04-18T10:01:50.970Z,98005.91
2023-04-18T10:04:56.273Z,97993.19
2023-04-18T10:07:58.850Z,98009.84
2023-04-18T10:11:01.339Z,98016.34
2023-04-18T10:14:08.006Z,98011.34
2023-04-18T10:17:11.316Z,98013.75
2023-04-18T10:20:20.286Z,97998.22
2023-04-18T10:23:34.978Z,98002.69
2023-04-18T10:26:50.573Z,98005.47
2023-04-18T10:29:54.985Z,98012.09
2023-04-18T10:32:57.044Z,98013.41
2023-04-18T10:36:20.782Z,98013.75
2023-04-18T10:39:24.452Z,98017.47
2023-04-18T10:42:58.743Z,98015.47
2023-04-18T10:46:23.988Z,98013.53
2023-04-18T10:49:35.403Z,98025.00
2023-04-18T10:52:37.565Z,98014.59
2023-04-18T10:55:44.885Z,98018.19
2023-04-18T10:58:51.524Z,97988.16
2023-04-18T11:02:04.780Z,98010.63
2023-04-18T11:05:08.640Z,98009.59
2023-04-18T11:08:29.052Z,97997.53
2023-04-18T11:11:31.014Z,97973.72
2023-04-18T11:14:48.453Z,97973.50
2023-04-18T11:18:04.711Z,97997.09
2023-04-18T11:21:06.847Z,97991.06
2023-04-18T11:24:08.975Z,98003.19
2023-04-18T11:27:12.473Z,98004.44
2023-04-18T11:30:15.816Z,98010.22
2023-04-18T11:33:18.096Z,98006.94
2023-04-18T11:36:20.235Z,97999.88
2023-04-18T11:39:22.892Z,98004.94
2023-04-18T11:42:31.179Z,98007.97
2023-04-18T11:45:33.829Z,98004.50
2023-04-18T11:48:40.929Z,98006.28
2023-04-18T11:51:46.419Z,97906.13
2023-04-18T11:54:48.630Z,98009.88
2023-04-18T11:58:00.697Z,98012.34
2023-04-18T12:01:18.773Z,98010.41
2023-04-18T12:04:21.345Z,98013.41
2023-04-18T12:07:33.914Z,97977.75
2023-04-18T12:10:38.726Z,98011.06
2023-04-18T12:13:40.816Z,98017.59
2023-04-18T12:16:42.847Z,98009.94
2023-04-18T12:19:49.673Z,98016.41
2023-04-18T12:22:54.399Z,98020.09
2023-04-18T12:26:01.506Z,98020.63
2023-04-18T12:29:03.484Z,98016.72
2023-04-18T12:32:06.341Z,98018.03
2023-04-18T12:35:08.981Z,98027.03
2023-04-18T12:38:11.236Z,98022.06
2023-04-18T12:41:13.222Z,98033.78
2023-04-18T12:44:16.488Z,98025.34
2023-04-18T12:47:18.736Z,98044.28
2023-04-18T12:50:26.050Z,98030.28
2023-04-18T12:53:28.311Z,98023.19
2023-04-18T12:56:30.325Z,98028.84
2023-04-18T12:59:32.390Z,97990.53
2023-04-18T13:02:37.557Z,98030.56
2023-04-18T13:05:39.759Z,98024.22
2023-04-18T13:08:42.907Z,98032.22
2023-04-18T13:11:45.252Z,98029.81
2023-04-18T13:14:47.219Z,98026.09
2023-04-18T13:17:49.808Z,98028.09
2023-04-18T13:20:52.739Z,98023.88
2023-04-18T13:23:54.894Z,98022.63
2023-04-18T13:26:57.066Z,98026.38
2023-04-18T13:29:59.073Z,98014.50
2023-04-18T13:33:01.089Z,98027.13
2023-04-18T13:36:03.424Z,98019.47
2023-04-18T13:39:05.977Z,98026.53
2023-04-18T13:42:08.215Z,98017.53
2023-04-18T13:45:10.794Z,98029.56
2023-04-18T13:48:14.447Z,98016.13
2023-04-18T13:51:18.228Z,98015.53
2023-04-18T13:54:20.337Z,98019.59
2023-04-18T13:57:23.414Z,98015.66
2023-04-18T14:00:25.527Z,98020.66
2023-04-18T14:03:28.809Z,98018.88
2023-04-18T14:06:32.745Z,98027.00
2023-04-18T14:09:34.912Z,98027.56
2023-04-18T14:12:37.020Z,97987.75
2023-04-18T14:15:39.256Z,98028.16
2023-04-18T14:18:41.359Z,98010.78
2023-04-18T14:21:43.327Z,98028.03
2023-04-18T14:24:45.648Z,98037.31
2023-04-18T14:27:48.878Z,97989.47
2023-04-18T14:30:52.213Z,98035.78
2023-04-18T14:33:54.374Z,98023.66
2023-04-18T14:36:56.418Z,97998.41
2023-04-18T14:39:58.397Z,98024.34
2023-04-18T14:43:00.754Z,98028.06
2023-04-18T14:46:02.772Z,98034.44
2023-04-18T14:49:04.756Z,98027.94
2023-04-18T14:52:06.807Z,98030.38
2023-04-18T14:55:09.819Z,98006.19
2023-04-18T14:58:11.819Z,98027.59
2023-04-18T15:01:13.900Z,98026.41
2023-04-18T15:04:16.276Z,98022.09
2023-04-18T15:07:18.643Z,98028.66
2023-04-18T15:10:22.693Z,98004.56
2023-04-18T15:13:25.451Z,98028.28
2023-04-18T15:16:27.726Z,98034.09
2023-04-18T15:19:31.286Z,98039.19
2023-04-18T15:22:34.058Z,98009.97
2023-04-18T15:25:36.077Z,98008.63
2023-04-18T15:28:38.119Z,98020.81
2023-04-18T15:31:40.106Z,98023.09
2023-04-18T15:34:42.127Z,98028.47
2023-04-18T15:37:44.180Z,98033.22
2023-04-18T15:40:46.208Z,98022.09
2023-04-18T15:43:48.359Z,98026.03
2023-04-18T15:46:50.919Z,98030.06
2023-04-18T15:49:53.484Z,98039.69
2023-04-18T15:52:56.577Z,98047.44
2023-04-18T15:56:01.892Z,98008.41
2023-04-18T15:59:06.033Z,98032.72
2023-04-18T16:02:09.710Z,98038.75
2023-04-18T16:05:12.637Z,98035.53
2023-04-18T16:08:14.896Z,98038.19
2023-04-18T16:11:17.353Z,98034.34
2023-04-18T16:14:19.540Z,97952.63
2023-04-18T16:17:21.584Z,98037.97
2023-04-18T16:20:23.831Z,98043.19
2023-04-18T16:23:26.614Z,98047.78
2023-04-18T16:26:29.190Z,98003.09
2023-04-18T16:29:31.221Z,98041.84
2023-04-18T16:32:33.365Z,98047.53
2023-04-18T16:35:35.809Z,98043.00
2023-04-18T16:38:37.982Z,98040.47
2023-04-18T16:41:39.948Z,98045.91
2023-04-18T16:44:42.085Z,98002.59
2023-04-18T16:47:44.078Z,98042.22
2023-04-18T16:50:46.196Z,98047.59
2023-04-18T16:53:48.287Z,98042.16
2023-04-18T16:56:50.404Z,98036.00
2023-04-18T16:59:52.529Z,98044.66
2023-04-18T17:02:56.315Z,98036.84
2023-04-18T17:05:58.662Z,97997.34
2023-04-18T17:09:01.004Z,98002.91
2023-04-18T17:12:03.580Z,98045.59
2023-04-18T17:15:06.074Z,98045.59
2023-04-18T17:18:08.471Z,98046.66
2023-04-18T17:21:12.751Z,98048.13
2023-04-18T17:24:14.954Z,98040.53
2023-04-18T17:27:17.391Z,98039.47
2023-04-18T17:30:19.966Z,98046.88
2023-04-18T17:33:22.317Z,98040.84
2023-04-18T17:36:25.375Z,98050.13
2023-04-18T17:39:28.043Z,98029.88
2023-04-18T17:42:31.283Z,98051.44
2023-04-18T17:45:33.524Z,98050.25
2023-04-18T17:48:35.840Z,98054.28
2023-04-18T17:51:38.360Z,98056.66
2023-04-18T17:54:41.412Z,98053.16
2023-04-18T17:57:43.814Z,98049.94
2023-04-18T18:00:46.998Z,98062.84
2023-04-18T18:03:50.263Z,98021.56
2023-04-18T18:06:58.470Z,98060.97
2023-04-18T18:10:10.250Z,98066.56
2023-04-18T18:13:13.191Z,98074.88
2023-04-18T18:16:16.697Z,98080.34
2023-04-18T18:19:21.607Z,98089.97
2023-04-18T18:22:26.530Z,98093.16
2023-04-18T18:25:29.365Z,98098.41
2023-04-18T18:28:32.883Z,98091.84
2023-04-18T18:31:39.508Z,98100.78
2023-04-18T18:34:43.125Z,98106.81
2023-04-18T18:37:49.083Z,98103.53
2023-04-18T18:40:52.337Z,98110.97
2023-04-18T18:43:55.128Z,98112.81
2023-04-18T18:46:59.437Z,98119.19
2023-04-18T18:50:05.342Z,98115.53
2023-04-18T18:53:08.742Z,98122.34
2023-04-18T18:56:11.760Z,98123.00
2023-04-18T18:59:16.416Z,98126.94
2023-04-18T19:02:19.723Z,98114.06
2023-04-18T19:05:23.400Z,98124.16
2023-04-18T19:08:26.242Z,98125.06
2023-04-18T19:11:31.058Z,98130.75
2023-04-18T19:14:35.075Z,98118.38
2023-04-18T19:17:38.330Z,98096.13
2023-04-18T19:20:42.532Z,98132.97
2023-04-18T19:23:47.362Z,98019.38
2023-04-18T19:26:50.240Z,98101.72
2023-04-18T19:29:53.365Z,98117.16
2023-04-18T19:32:55.986Z,98124.69
2023-04-18T19:35:59.413Z,98119.56
2023-04-18T19:39:02.442Z,98124.47
2023-04-18T19:42:05.456Z,98111.84
2023-04-18T19:45:08.095Z,98125.28
2023-04-18T19:48:11.233Z,98132.44
2023-04-18T19:51:17.093Z,98124.88
2023-04-18T19:54:22.012Z,98121.25
2023-04-18T19:57:25.851Z,98124.72
2023-04-18T20:00:30.249Z,98127.22
2023-04-18T20:03:34.882Z,98123.63
2023-04-18T20:06:37.792Z,98122.00
2023-04-18T20:09:42.648Z,98121.19
2023-04-18T20:12:45.551Z,98117.72
2023-04-18T20:15:48.651Z,98118.47
2023-04-18T20:18:54.800Z,98076.66
2023-04-18T20:21:57.571Z,98116.09
2023-04-18T20:25:02.290Z,98113.63
2023-04-18T20:28:05.032Z,98089.88
2023-04-18T20:31:08.098Z,98112.47
2023-04-18T20:34:10.881Z,98111.88
2023-04-18T20:37:16.591Z,98121.09
2023-04-18T20:40:19.076Z,98119.66
2023-04-18T20:43:29.138Z,98122.75
2023-04-18T20:46:33.271Z,97915.72
2023-04-18T20:49:36.195Z,98034.06
2023-04-18T20:52:38.828Z,97865.19
2023-04-18T20:55:41.132Z,98056.31
2023-04-18T20:58:43.728Z,97864.09
2023-04-18T21:01:48.715Z,97927.66
2023-04-18T21:04:51.365Z,97945.31
2023-04-18T21:07:53.502Z,97841.41
2023-04-18T21:10:55.744Z,98135.09
2023-04-18T21:13:57.809Z,97973.44
2023-04-18T21:17:00.666Z,97963.00
2023-04-18T21:20:03.691Z,97909.28
2023-04-18T21:23:06.297Z,97856.38
2023-04-18T21:26:13.765Z,97989.78
2023-04-18T21:29:16.031Z,98120.63
2023-04-18T21:32:18.120Z,98061.50
2023-04-18T21:35:21.913Z,98060.34
2023-04-18T21:38:26.105Z,98093.31
2023-04-18T21:41:28.504Z,98013.94
2023-04-18T21:44:30.795Z,98162.81
2023-04-18T21:47:33.254Z,98108.53
2023-04-18T21:50:37.754Z,98038.97
2023-04-18T21:53:41.183Z,97935.13
2023-04-18T21:56:43.809Z,97924.81
2023-04-18T21:59:46.056Z,98072.28
2023-04-18T22:02:48.429Z,98052.13
2023-04-18T22:05:52.824Z,97843.66
2023-04-18T22:08:54.939Z,98113.22
2023-04-18T22:11:57.245Z,98105.50
2023-04-18T22:14:59.527Z,98069.66
2023-04-18T22:18:02.012Z,98137.22
2023-04-18T22:21:04.434Z,98151.94
2023-04-18T22:24:07.390Z,98061.25
2023-04-18T22:27:09.648Z,97971.59
2023-04-18T22:30:12.618Z,97990.50
2023-04-18T22:33:14.817Z,97783.84
2023-04-18T22:36:16.958Z,97995.19
2023-04-18T22:39:19.183Z,97999.66
2023-04-18T22:42:21.362Z,98005.78
2023-04-18T22:45:23.689Z,97872.81
2023-04-18T22:48:25.967Z,97754.00
2023-04-18T22:51:29.034Z,97923.00
2023-04-18T22:54:31.301Z,97936.81
2023-04-18T22:57:33.467Z,98012.03
2023-04-18T23:00:36.025Z,98104.31
2023-04-18T23:03:38.463Z,98086.78
2023-04-18T23:06:40.943Z,97840.09
2023-04-18T23:09:43.233Z,98099.19
2023-04-18T23:12:45.556Z,97984.97
2023-04-18T23:15:47.817Z,97957.31
2023-04-18T23:18:50.157Z,97977.66
2023-04-18T23:21:52.418Z,97984.56
2023-04-18T23:24:55.483Z,98079.50
2023-04-18T23:27:57.626Z,98037.41
2023-04-18T23:30:59.719Z,97759.28
2023-04-18T23:34:01.876Z,97842.34
2023-04-18T23:37:04.056Z,98074.56
2023-04-18T23:40:07.072Z,97775.72
2023-04-18T23:43:09.142Z,97785.44
2023-04-18T23:46:12.321Z,98101.38
2023-04-18T23:49:14.982Z,98067.78
2023-04-18T23:52:17.317Z,97789.28
2023-04-18T23:55:19.450Z,98073.44
2023-04-18T23:58:21.541Z,97973.50
